Date,TemperatureHighF,TemperatureAvgF,TemperatureLowF,DewpointHighF,DewpointAvgF,DewpointLowF,HumidityHigh,HumidityAvg,HumidityLow,PressureMaxIn,PressureMinIn,WindSpeedMaxMPH,WindSpeedAvgMPH,GustSpeedMaxMPH,PrecipitationSumIn
2013-1-1,19,8,-1,9,4,-3,92,85,65,0.00,40.00,1,0,5,0.00
2013-1-2,22,5,-2,9,1,-4,94,84,56,0.00,40.00,2,1,4,0.00
2013-1-3,34,13,2,15,8,0,99,84,46,0.00,40.00,2,1,7,0.05
2013-1-4,32,14,7,13,8,5,95,82,43,0.00,40.00,2,1,6,0.01
2013-1-5,33,14,4,12,8,1,92,77,35,0.00,40.00,2,1,6,0.01
2013-1-6,33,21,14,19,14,11,89,75,43,0.00,40.00,3,1,13,0.00
2013-1-7,23,16,9,17,14,8,97,90,65,0.00,40.00,1,1,6,0.00
2013-1-8,28,22,17,27,21,16,99,96,90,0.00,40.00,4,1,10,0.00
2013-1-9,46,31,27,32,27,15,98,85,42,0.00,40.00,4,2,14,0.20
2013-1-10,37,26,14,31,23,12,98,87,42,0.00,40.00,5,2,21,0.01
2013-1-11,14,8,-5,12,4,-8,94,86,73,0.00,40.00,0,-733,7,0.00
2013-1-12,17,-4,-14,1,-8,-18,88,80,48,0.00,40.00,2,-488,164,0.00
2013-1-13,13,-2,-15,0,-8,-19,88,77,52,0.00,40.00,1,1,6,0.00
2013-1-14,7,-6,-15,-4,-10,-19,86,80,57,0.00,40.00,2,0,5,0.00
2013-1-15,11,3,-6,5,0,-9,91,85,74,0.00,40.00,1,0,7,0.00
2013-1-18,33,15,8,22,12,6,99,89,48,0.00,40.00,2,1,5,0.01
2013-1-19,39,18,8,20,14,6,97,86,42,0.00,40.00,1,0,6,0.00
2013-1-20,36,19,12,16,12,11,96,79,39,0.00,40.00,2,1,7,0.00
2013-1-21,41,21,10,15,13,9,96,74,32,0.00,40.00,1,0,7,0.00
2013-1-22,44,24,13,17,14,10,93,68,29,0.00,40.00,2,0,7,0.00
2013-1-23,47,30,22,16,10,4,65,45,20,0.00,40.00,3,1,11,0.01
2013-1-24,37,31,29,32,28,13,100,91,40,0.00,40.00,5,2,17,0.01
2013-1-25,37,32,29,32,29,27,100,89,74,0.00,40.00,3,2,11,0.00
2013-1-26,39,34,31,35,33,30,100,95,87,0.00,40.00,3,2,10,0.01
2013-1-27,33,28,20,33,26,19,100,96,87,0.00,40.00,2,1,9,0.01
2013-1-28,23,18,12,19,15,10,96,89,72,0.00,40.00,1,-940,6,0.00
2013-1-29,29,15,10,18,13,9,97,89,59,0.00,40.00,0,-999,135,0.00
2013-1-30,28,22,11,27,21,10,100,94,84,0.00,40.00,4,-253,18,0.00
2013-1-31,33,28,23,28,26,22,99,92,79,0.00,40.00,2,1,9,0.00
2013-2-1,31,28,25,28,26,23,100,96,85,0.00,40.00,4,2,12,0.00
2013-2-2,33,26,19,28,24,18,100,93,78,0.00,40.00,2,1,8,0.00
2013-2-3,39,23,14,27,19,13,99,87,53,0.00,40.00,2,1,7,0.01
2013-2-4,31,23,18,27,22,18,100,95,84,0.00,40.00,1,1,6,0.01
2013-2-5,43,32,23,29,25,20,99,77,47,0.00,40.00,4,1,10,0.01
2013-2-6,26,23,19,24,22,19,100,98,89,0.00,40.00,2,1,8,0.01
2013-2-7,40,22,10,21,16,8,98,81,41,0.00,40.00,2,1,7,0.00
2013-2-8,47,29,19,25,19,13,93,69,31,0.00,40.00,2,1,9,0.07
2013-2-9,40,27,20,21,17,12,96,68,32,0.00,40.00,3,1,12,0.01
2013-2-10,31,18,3,19,6,-2,97,64,27,0.00,40.00,2,1,13,0.01
2013-2-11,31,10,-3,5,-1,-10,87,64,28,0.00,40.00,2,1,12,0.00
2013-2-12,24,17,9,18,14,5,95,85,77,0.00,40.00,3,1,8,0.00
2013-2-13,26,24,19,25,22,18,99,95,92,0.00,40.00,3,2,10,0.00
2013-2-14,33,24,19,25,20,17,100,85,54,0.00,40.00,3,2,11,0.01
2013-2-15,42,24,13,23,18,12,99,83,38,0.00,40.00,3,1,8,0.03
2013-2-16,42,30,23,23,22,19,91,73,45,0.00,40.00,3,1,9,0.06
2013-2-17,33,25,15,22,18,12,97,76,51,0.00,40.00,5,2,18,0.01
2013-2-18,34,19,9,15,11,5,93,74,29,0.00,40.00,3,2,12,0.00
2013-2-19,35,22,8,26,13,4,100,72,33,0.00,40.00,5,1,17,0.00
2013-2-20,43,27,18,25,20,14,99,79,35,0.00,40.00,2,1,9,0.05
2013-2-21,26,20,13,21,16,12,97,88,69,0.00,40.00,2,1,7,0.01
2013-2-22,27,19,13,19,16,12,95,87,68,0.00,40.00,4,2,13,0.00
2013-2-23,26,21,12,25,19,11,97,93,82,0.00,40.00,5,3,15,0.00
2013-2-24,35,15,3,19,9,1,97,80,48,0.00,40.00,3,1,9,0.08
2013-2-25,29,18,5,19,13,3,95,82,54,0.00,40.00,4,1,9,0.02
2013-2-26,33,18,8,19,14,6,98,85,51,0.00,40.00,3,1,10,0.00
2013-2-27,32,18,11,17,13,9,97,81,53,0.00,40.00,2,1,9,0.00
2013-2-28,29,21,14,22,18,12,98,87,70,0.00,40.00,3,1,8,0.00
2013-3-1,32,27,21,29,26,20,100,95,85,0.00,40.00,2,1,8,0.00
2013-3-2,50,34,29,33,30,29,100,89,52,0.00,40.00,2,1,7,0.39
2013-3-3,35,30,19,33,29,17,100,95,79,0.00,40.00,61,6,21,0.02
2013-3-4,31,14,6,17,8,3,97,79,37,0.00,40.00,2,1,9,0.00
2013-3-5,45,25,5,22,14,2,91,65,27,0.00,40.00,2,1,10,0.09
2013-3-6,41,31,23,33,27,16,100,86,43,0.00,40.00,5,3,20,0.09
2013-3-7,42,28,18,27,22,17,100,80,40,0.00,40.00,4,1,12,0.10
2013-3-8,40,30,22,32,28,22,100,90,72,0.00,40.00,1,1,7,0.13
2013-3-9,46,25,17,22,17,10,100,77,23,0.00,40.00,2,1,11,0.26
2013-3-10,46,30,16,22,19,11,83,66,32,0.00,40.00,2,1,9,0.14
2013-3-11,45,31,21,25,21,16,93,68,38,0.00,40.00,4,2,15,0.11
2013-3-12,46,32,18,29,18,6,82,60,30,0.00,40.00,3,2,12,0.05
2013-3-13,54,42,34,31,29,26,84,62,34,0.00,40.00,4,2,13,0.05
2013-3-14,61,48,33,28,24,20,79,43,25,0.00,40.00,4,2,12,0.02
2013-3-15,56,43,37,27,24,19,60,48,27,0.00,40.00,4,2,13,0.00
2013-3-16,48,37,29,29,24,16,91,63,28,0.00,40.00,4,2,17,0.00
2013-3-17,36,26,15,31,22,9,100,86,34,0.00,40.00,8,4,25,0.01
2013-3-18,34,20,9,23,14,7,91,78,47,0.00,40.00,4,2,17,0.01
2013-3-19,43,21,9,15,3,-10,91,56,11,0.00,40.00,3,1,11,0.14
2013-3-20,36,33,23,34,27,-11,98,83,14,0.00,40.00,5,3,16,0.15
2013-3-21,37,28,19,33,25,18,100,91,55,0.00,40.00,7,3,23,0.08
2013-3-22,35,19,8,22,15,6,98,84,43,0.00,40.00,4,1,12,0.00
2013-3-23,36,12,0,14,6,-3,95,80,32,0.00,40.00,2,1,9,0.05
2013-3-24,34,18,3,13,7,1,95,66,33,0.00,40.00,2,1,8,0.01
2013-3-25,42,22,5,14,8,2,88,60,23,0.00,40.00,2,1,11,0.17
2013-3-26,49,33,15,30,25,12,99,75,43,0.00,40.00,4,2,12,0.34
2013-3-27,51,34,28,31,28,24,100,79,43,0.00,40.00,4,1,14,0.22
2013-3-28,60,45,34,24,23,21,64,44,25,0.00,40.00,4,2,10,0.21
2013-3-29,60,40,33,36,31,23,99,73,33,0.00,40.00,3,2,13,0.04
2013-3-30,56,39,32,35,27,-100,100,71,27,0.00,40.00,3,1,11,0.04
2013-3-31,61,44,30,26,21,16,74,43,18,0.00,40.00,4,2,13,0.00
2013-4-1,65,44,32,22,19,16,66,40,16,0.00,40.00,2,1,9,0.00
2013-4-2,62,42,30,33,24,14,100,59,16,0.00,40.00,2,1,9,0.00
2013-4-3,61,43,32,31,26,20,87,55,20,0.00,40.00,2,1,11,0.00
2013-4-4,61,49,39,34,30,27,74,48,31,0.00,40.00,4,2,16,0.00
2013-4-5,49,39,32,38,34,29,99,83,53,0.00,40.00,6,3,21,0.43
2013-4-6,41,37,32,37,31,26,95,81,69,0.00,40.00,4,2,17,0.12
2013-4-7,38,34,32,35,31,28,99,88,81,0.00,40.00,6,3,20,0.32
2013-4-8,44,31,23,31,25,12,100,78,54,0.00,40.00,4,2,19,0.07
2013-4-9,44,27,19,20,12,7,76,55,27,0.00,40.00,3,2,16,0.01
2013-4-10,47,33,14,27,17,5,81,55,23,0.00,40.00,3,1,13,0.00
2013-4-11,53,38,29,33,28,18,100,74,25,0.00,40.00,3,-32,13,0.03
2013-4-12,53,34,20,31,21,9,100,68,19,0.00,40.00,183,-208,12,0.14
2013-4-13,40,33,23,34,27,15,100,80,41,0.00,40.00,7,4,26,0.03
2013-4-14,40,26,16,16,12,7,87,60,29,0.00,40.00,5,2,15,0.11
2013-4-15,39,25,15,26,16,11,94,71,38,0.00,40.00,2,1,10,0.02
2013-4-16,37,25,16,17,11,8,89,60,31,0.00,40.00,4,1,12,0.04
2013-4-17,38,21,7,8,4,-1,80,54,21,0.00,40.00,3,1,12,0.05
2013-4-18,47,27,8,14,8,1,83,48,23,0.00,40.00,3,2,12,0.04
2013-4-19,41,33,28,33,25,13,100,73,45,0.00,40.00,5,2,12,0.01
2013-4-20,47,35,32,39,33,30,100,94,74,0.00,40.00,5,2,13,0.53
2013-4-21,45,37,29,31,27,21,100,71,45,0.00,40.00,7,3,26,0.25
2013-4-22,40,30,20,29,20,9,100,72,40,0.00,40.00,3,1,14,0.11
2013-4-23,45,27,9,18,7,-8,90,50,14,0.00,40.00,3,1,11,0.08
2013-4-24,52,34,19,18,14,8,84,50,20,0.00,40.00,3,1,12,0.00
2013-4-25,59,45,32,15,11,5,47,27,12,0.00,40.00,5,3,16,0.00
2013-4-26,65,48,30,22,16,10,59,31,13,0.00,40.00,3,2,12,0.00
2013-4-27,65,53,33,25,10,-100,68,27,14,0.00,40.00,5,3,18,0.00
2013-4-28,54,48,42,36,19,-100,79,40,32,0.00,40.00,7,3,19,0.00
2013-4-29,52,43,37,30,23,16,52,45,40,0.00,40.00,9,5,32,0.00
2013-4-30,43,35,25,23,15,7,88,49,28,0.00,40.00,3,1,10,0.00
2013-5-1,45,32,25,20,13,4,77,50,21,0.00,40.00,2,1,12,0.00
2013-5-2,56,39,24,13,8,5,54,31,13,0.00,40.00,3,1,12,0.00
2013-5-3,60,46,32,22,15,7,48,31,16,0.00,40.00,2,1,10,0.00
2013-5-4,57,43,33,34,29,22,86,58,36,0.00,40.00,4,2,16,0.00
2013-5-5,63,44,34,40,30,24,97,62,24,0.00,40.00,3,2,15,0.01
2013-5-6,66,48,33,34,30,24,95,56,21,0.00,40.00,2,1,8,0.01
2013-5-7,70,48,34,41,32,22,99,60,16,0.00,40.00,2,1,12,0.00
2013-5-8,70,49,34,37,29,22,100,58,17,0.00,40.00,2,1,13,0.00
2013-5-9,68,52,37,37,30,24,81,48,22,0.00,40.00,2,1,11,0.00
2013-5-10,73,52,37,36,27,19,75,44,13,0.00,40.00,3,1,19,0.00
2013-5-11,72,57,40,34,27,-100,65,38,15,0.00,40.00,2,1,10,0.00
2013-5-12,79,65,46,37,32,29,60,33,17,0.00,40.00,4,2,12,0.00
2013-5-13,79,68,48,36,30,27,54,27,16,0.00,40.00,6,4,22,0.00
2013-5-14,74,62,44,35,29,22,56,31,14,0.00,40.00,5,3,25,0.00
2013-5-15,75,58,41,34,30,26,63,39,19,0.00,40.00,4,2,14,0.00
2013-5-16,64,48,43,44,19,-100,97,63,37,0.00,40.00,3,2,14,0.09
2013-5-17,48,44,38,45,38,-100,100,93,85,0.00,40.00,3,1,10,0.40
2013-5-18,42,40,37,41,39,36,100,97,89,0.00,40.00,2,1,7,1.19
2013-5-19,44,40,36,43,39,36,100,97,92,0.00,40.00,1,1,7,0.53
2013-5-20,58,45,34,47,40,34,100,87,58,0.00,40.00,2,1,9,0.14
2013-5-21,65,49,33,40,14,-100,100,58,45,0.00,40.00,3,1,10,0.01
2013-5-22,66,50,36,41,35,27,80,59,25,0.00,40.00,6,2,19,0.00
2013-5-23,65,44,32,40,32,27,95,68,32,0.00,40.00,5,1,25,0.00
2013-5-24,60,45,32,34,24,18,100,51,20,0.00,40.00,5,3,19,0.06
2013-5-25,67,53,38,34,26,12,55,36,21,0.00,40.00,3,2,15,0.02
2013-5-26,71,53,40,41,-26,-100,89,26,33,0.00,40.00,5,2,16,0.01
2013-5-27,57,46,38,41,35,32,96,67,38,0.00,40.00,4,2,15,0.02
2013-5-28,55,44,37,43,39,29,100,84,54,0.00,40.00,3,1,16,0.24
2013-5-29,51,41,38,47,40,37,100,97,85,0.00,40.00,3,1,11,0.67
2013-5-30,54,40,35,43,37,34,100,89,54,0.00,40.00,4,2,14,0.44
2013-5-31,57,43,32,37,32,29,100,71,38,0.00,40.00,3,1,13,0.14
2013-6-1,66,48,31,39,30,22,92,57,24,0.00,40.00,3,1,10,0.01
2013-6-2,76,60,41,40,33,27,68,41,19,0.00,40.00,6,3,22,0.00
2013-6-3,58,47,33,41,34,30,90,63,38,0.00,40.00,5,2,13,0.00
2013-6-4,63,48,38,37,32,27,87,58,28,0.00,40.00,2,1,8,0.00
2013-6-5,70,52,32,37,32,27,89,52,25,0.00,40.00,2,1,12,0.00
2013-6-6,74,60,45,42,36,31,66,44,25,0.00,40.00,2,1,8,0.00
2013-6-7,78,62,46,45,39,36,71,47,25,0.00,40.00,4,2,16,0.00
2013-6-8,74,60,43,43,38,33,75,47,22,0.00,40.00,3,2,12,0.00
2013-6-9,81,65,46,44,37,32,64,38,23,0.00,40.00,6,3,20,0.00
2013-6-10,82,72,59,49,38,14,45,31,12,0.00,40.00,5,3,19,0.00
2013-6-11,75,65,50,46,34,13,58,35,12,0.00,40.00,6,3,24,0.00
2013-6-12,64,54,45,51,45,37,96,73,44,0.00,40.00,5,2,20,0.10
2013-6-13,71,54,41,58,43,34,93,69,35,0.00,40.00,5,2,18,0.10
2013-6-14,59,47,36,39,31,25,91,57,31,0.00,40.00,7,2,16,0.01
2013-6-15,74,56,35,36,29,21,71,40,15,0.00,40.00,3,2,11,0.00
2013-6-16,81,67,46,38,30,22,53,28,15,0.00,40.00,6,2,17,0.00
2013-6-17,79,62,46,34,30,20,59,36,14,0.00,40.00,4,2,14,0.00
2013-6-18,82,70,53,43,31,17,47,25,12,0.00,40.00,6,2,15,0.01
2013-6-19,69,55,35,41,35,27,93,52,29,0.00,40.00,3,2,12,0.16
2013-6-20,57,41,33,34,29,25,93,66,40,0.00,40.00,4,2,16,0.16
2013-6-22,60,52,43,35,31,27,58,46,36,0.00,40.00,3,2,20,0.00
2013-6-23,72,57,38,35,29,25,61,37,22,0.00,40.00,3,2,15,0.00
2013-6-24,74,64,48,48,42,28,94,48,27,0.00,40.00,3,2,13,0.05
2013-6-25,65,53,45,51,47,44,100,82,46,0.00,40.00,5,2,15,0.27
2013-6-26,75,60,50,52,47,41,100,67,32,0.00,40.00,6,3,19,0.09
2013-6-27,84,78,59,48,45,41,56,33,22,0.00,40.00,4,2,13,0.00
2013-6-28,87,77,55,48,39,26,65,28,11,0.00,40.00,3,2,13,0.00
2013-6-29,91,73,56,49,43,34,69,39,16,0.00,40.00,3,2,22,0.01
2013-6-30,87,70,53,50,47,44,73,47,24,0.00,40.00,3,1,7,0.01
2013-7-1,90,69,55,53,46,42,73,46,24,0.00,40.00,3,1,12,0.00
2013-7-2,92,72,53,59,45,35,73,42,20,0.00,40.00,4,2,12,0.00
2013-7-3,88,74,58,54,49,43,64,44,25,0.00,40.00,3,2,10,0.00
2013-7-4,85,71,60,57,50,44,66,48,30,0.00,40.00,4,2,17,0.00
2013-7-5,82,66,55,54,48,41,87,56,27,0.00,40.00,4,2,15,0.01
2013-7-6,76,57,48,51,45,41,100,71,30,0.00,40.00,3,2,21,0.36
2013-7-7,84,58,44,55,46,37,100,71,35,0.00,40.00,6,2,17,0.37
2013-7-8,81,64,50,56,43,33,69,49,24,0.00,40.00,7,2,19,0.01
2013-7-9,85,69,51,42,37,34,69,34,18,0.00,40.00,4,2,13,0.00
2013-7-10,89,77,55,40,28,-100,37,19,15,0.00,40.00,4,2,13,0.00
2013-7-11,81,65,51,50,45,35,93,55,21,0.00,40.00,4,2,16,0.02
2013-7-12,79,61,48,50,44,34,95,60,28,0.00,40.00,6,2,19,0.01
2013-7-13,77,71,62,50,44,39,53,39,29,0.00,40.00,6,4,17,0.00
2013-7-14,84,70,53,46,42,36,55,37,25,0.00,40.00,5,2,15,0.00
2013-7-15,86,74,56,46,40,31,49,32,18,0.00,40.00,2,2,13,0.00
2013-7-16,81,73,68,53,50,45,54,44,34,0.00,40.00,3,1,11,0.00
2013-7-17,87,69,56,60,56,46,100,68,35,0.00,40.00,3,1,10,0.04
2013-7-18,87,73,54,54,46,39,73,43,19,0.00,40.00,3,1,11,0.00
2013-7-19,88,78,60,45,38,33,57,26,15,0.00,40.00,2,2,11,0.00
2013-7-20,87,76,52,39,30,-100,51,21,15,0.00,40.00,3,2,11,0.00
2013-7-21,87,80,65,39,33,26,30,19,13,0.00,40.00,2,2,11,0.00
2013-7-22,88,80,57,39,27,19,25,15,8,0.00,40.00,4,2,15,0.00
2013-7-23,88,75,54,41,32,24,41,23,10,0.00,40.00,3,1,12,0.00
2013-7-24,84,70,53,51,40,27,51,34,21,0.00,40.00,2,1,7,0.00
2013-7-25,88,76,57,48,39,33,54,29,16,0.00,40.00,3,2,16,0.00
2013-7-26,88,75,53,42,37,31,49,26,16,0.00,40.00,4,2,10,0.00
2013-7-27,69,60,50,53,44,30,97,58,31,0.00,40.00,4,2,9,0.01
2013-7-28,78,59,46,50,46,38,97,66,35,0.00,40.00,3,2,16,0.02
2013-7-29,79,61,48,47,42,38,79,53,29,0.00,40.00,4,2,20,0.02
2013-7-30,80,66,51,48,41,34,68,42,19,0.00,40.00,6,2,21,0.00
2013-7-31,83,67,51,45,39,33,57,39,19,0.00,40.00,10,2,26,0.00
2013-8-1,84,67,53,50,42,35,88,46,22,0.00,40.00,6,2,20,0.02
2013-8-2,78,66,46,42,34,27,59,33,17,0.00,40.00,4,2,17,0.00
2013-8-3,82,71,47,37,32,25,41,24,17,0.00,40.00,3,2,10,0.00
2013-8-4,86,78,55,35,30,25,31,18,13,0.00,40.00,4,2,12,0.00
2013-8-5,88,82,68,34,29,21,27,15,9,0.00,40.00,5,3,16,0.00
2013-8-6,84,69,50,39,32,24,40,26,17,0.00,40.00,3,2,13,0.00
2013-8-7,86,72,50,32,28,23,40,22,12,0.00,40.00,3,2,11,0.00
2013-8-8,86,73,57,42,36,30,49,28,17,0.00,40.00,5,2,18,0.00
2013-8-9,83,63,51,48,38,30,82,43,20,0.00,40.00,3,1,11,0.00
2013-8-10,84,70,53,41,32,27,54,27,14,0.00,40.00,4,2,13,0.00
2013-8-11,85,68,53,34,30,27,42,25,14,0.00,40.00,6,2,19,0.00
2013-8-12,86,65,52,39,30,26,43,28,16,0.00,40.00,5,2,18,0.00
2013-8-13,84,66,50,40,31,-100,43,29,17,0.00,40.00,7,2,18,0.00
2013-8-14,86,67,50,36,30,-100,49,29,13,0.00,40.00,3,2,13,0.00
2013-8-15,91,64,56,26,-8,-100,31,8,7,0.00,40.00,3,2,13,0.00
2013-8-16,92,79,63,22,13,-100,19,10,6,0.00,40.00,3,2,13,0.00
2013-8-17,89,80,63,32,24,-100,28,14,11,0.00,40.00,4,2,17,0.00
2013-8-18,89,79,57,38,33,28,49,20,12,0.00,40.00,3,2,14,0.00
2013-8-19,89,71,62,34,11,-100,27,16,8,0.00,40.00,4,2,12,0.00
2013-8-20,89,71,60,42,31,-100,41,26,10,0.00,40.00,3,1,12,0.00
2013-8-21,81,63,52,55,45,33,100,58,30,0.00,40.00,2,2,10,0.11
2013-8-22,80,66,51,52,47,43,99,55,32,0.00,40.00,4,1,10,0.14
2013-8-23,81,63,52,53,48,43,97,64,29,0.00,40.00,7,2,24,0.33
2013-8-24,78,58,50,52,45,-100,100,67,29,0.00,40.00,5,2,18,0.09
2013-8-25,83,62,48,51,45,38,99,61,28,0.00,40.00,5,2,13,0.09
2013-8-26,78,63,52,55,50,38,100,67,37,0.00,40.00,4,2,13,0.40
2013-8-27,78,57,51,54,50,47,100,83,37,0.00,40.00,2,2,7,0.38
2013-8-28,75,62,51,57,54,50,100,79,46,0.00,40.00,4,2,12,0.41
2013-8-29,81,66,51,55,50,41,97,59,39,0.00,40.00,5,2,14,0.21
2013-8-30,85,73,62,50,42,35,47,33,26,0.00,40.00,4,3,14,0.12
2013-8-31,85,68,50,35,27,-100,41,24,13,0.00,40.00,3,2,12,0.12
2013-9-1,86,77,61,35,31,27,31,20,12,0.00,40.00,2,1,7,0.00
2013-9-2,66,60,55,60,54,27,100,84,30,0.00,40.00,5,1,12,0.15
2013-9-3,84,63,53,62,55,51,100,81,35,0.00,40.00,5,1,24,0.55
2013-9-4,80,63,53,61,55,53,100,80,42,0.00,40.00,2,1,9,0.17
2013-9-5,82,71,57,59,52,44,83,54,35,0.00,40.00,3,2,12,0.00
2013-9-6,83,59,53,58,53,40,100,86,33,0.00,40.00,5,2,18,0.21
2013-9-7,76,59,52,56,50,-100,100,77,41,0.00,40.00,3,1,9,0.10
2013-9-8,70,58,49,52,48,44,99,71,44,0.00,40.00,4,2,13,0.17
2013-9-9,71,54,45,50,44,38,100,75,34,0.00,40.00,3,1,9,0.17
2013-9-10,77,62,42,45,42,37,81,50,29,0.00,40.00,3,1,8,0.00
2013-9-11,78,60,46,48,42,39,84,55,26,0.00,40.00,2,1,14,0.00
2013-9-12,73,58,51,54,45,39,100,65,41,0.00,40.00,2,1,13,0.05
2013-9-13,78,58,49,52,46,41,100,68,33,0.00,40.00,4,1,13,0.24
2013-9-14,69,54,46,54,46,-100,100,79,47,0.00,40.00,3,1,16,0.26
2013-9-15,68,54,49,53,47,44,87,76,54,0.00,40.00,3,1,10,0.08
2013-9-16,75,60,47,54,49,43,100,70,42,0.00,40.00,5,2,14,0.22
2013-9-17,71,55,47,54,47,41,100,78,34,0.00,40.00,6,3,18,0.54
2013-9-18,50,43,33,47,42,33,100,97,82,0.00,40.00,5,2,16,0.46
2013-9-19,59,42,32,39,34,32,100,79,37,0.00,40.00,3,1,8,0.01
2013-9-20,71,54,35,32,25,19,85,40,14,0.00,40.00,4,2,14,0.00
2013-9-21,76,64,49,32,26,-100,35,25,18,0.00,40.00,7,4,21,0.00
2013-9-22,61,49,38,41,38,34,95,68,47,0.00,40.00,4,2,14,0.00
2013-9-23,61,45,35,40,34,29,97,66,34,0.00,40.00,7,2,19,0.02
2013-9-24,63,52,42,39,34,29,78,51,29,0.00,40.00,6,3,25,0.01
2013-9-25,48,38,31,41,36,30,100,92,56,0.00,40.00,5,2,19,0.38
2013-9-26,44,34,30,37,32,30,100,93,62,0.00,40.00,2,1,8,0.14
2013-9-27,38,34,32,36,32,30,100,95,83,0.00,40.00,5,2,17,0.12
2013-9-28,44,38,32,38,32,-100,100,81,61,0.00,40.00,6,4,17,0.09
2013-9-29,49,45,41,41,32,24,98,61,40,0.00,40.00,8,5,25,0.15
2013-9-30,55,47,41,44,39,30,98,76,53,0.00,40.00,10,6,30,0.27
2013-10-1,51,47,43,37,34,29,67,60,49,0.00,40.00,5,3,11,0.01
2013-10-2,54,42,31,38,31,26,100,70,45,0.00,40.00,4,2,16,0.02
2013-10-3,37,33,29,35,32,29,100,96,83,0.00,40.00,9,-46,11,0.03
2013-10-4,41,30,25,32,27,24,100,89,56,0.00,40.00,2,1,12,0.34
2013-10-5,50,32,21,30,25,20,100,79,43,0.00,40.00,2,1,10,0.20
2013-10-6,60,40,29,29,26,23,88,62,29,0.00,40.00,2,1,8,0.02
2013-10-7,66,55,33,31,28,15,50,37,24,0.00,40.00,3,2,14,0.00
2013-10-8,51,40,29,27,24,18,82,53,27,0.00,40.00,4,1,11,0.00
2013-10-9,60,38,28,35,27,21,86,67,30,0.00,40.00,3,1,12,0.00
2013-10-10,57,44,35,41,35,30,100,76,47,0.00,40.00,3,1,10,0.13
2013-10-11,47,37,30,38,29,21,100,76,40,0.00,40.00,4,1,12,0.13
2013-10-12,44,36,29,39,28,-100,99,79,52,0.00,40.00,3,2,11,0.04
2013-10-13,44,36,31,43,35,31,100,97,84,0.00,40.00,3,1,10,0.41
2013-10-14,39,33,29,35,32,27,100,96,83,0.00,40.00,2,1,10,0.12
2013-10-15,49,31,23,27,22,19,94,75,32,0.00,40.00,2,1,8,0.04
2013-10-16,44,33,24,26,24,20,87,69,47,0.00,40.00,2,1,9,0.00
2013-10-17,44,35,29,28,24,21,85,67,46,0.00,40.00,2,1,8,0.00
2013-10-18,49,32,22,24,18,15,85,59,28,0.00,40.00,3,2,9,0.00
2013-10-19,52,40,29,28,21,-100,66,52,37,0.00,40.00,4,2,11,0.00
2013-10-22,62,52,33,32,30,24,69,46,32,0.00,40.00,3,1,7,0.00
2013-10-23,64,56,44,27,25,23,46,32,21,0.00,40.00,3,1,8,0.00
2013-10-24,67,59,46,23,19,16,37,22,14,0.00,40.00,2,1,7,0.00
2013-10-25,64,55,42,26,24,22,49,32,21,0.00,40.00,2,1,8,0.00
2013-10-26,62,48,36,27,20,-100,53,37,24,0.00,40.00,2,2,8,0.00
2013-10-27,59,47,35,24,21,17,52,36,20,0.00,40.00,3,1,9,0.00
2013-10-28,49,40,32,33,24,-100,100,59,36,0.00,40.00,17,4,21,0.00
2013-10-29,37,33,30,34,32,30,100,97,85,0.00,40.00,50,4,10,0.00
2013-10-30,33,31,30,33,31,30,100,99,96,0.00,40.00,3,1,14,0.00
2013-10-31,33,32,29,33,31,29,100,99,94,0.00,40.00,4,2,15,0.01
2013-11-1,43,32,27,35,31,27,100,94,72,0.00,40.00,3,1,8,0.53
2013-11-2,52,44,33,32,24,-100,95,49,41,0.00,40.00,5,4,20,0.59
2013-11-3,38,28,18,30,22,15,91,78,62,0.00,40.00,6,3,21,0.01
2013-11-4,26,22,17,18,16,11,91,78,63,0.00,40.00,5,2,16,0.00
2013-11-5,27,22,17,19,16,12,90,79,59,0.00,40.00,3,2,13,0.00
2013-11-6,33,28,23,32,27,19,98,95,85,0.00,40.00,4,2,13,0.00
2013-11-7,39,34,32,35,33,30,100,94,75,0.00,40.00,7,3,18,0.14
2013-11-8,43,36,32,34,23,15,99,62,37,0.00,40.00,8,4,24,0.41
2013-11-9,47,35,30,26,21,-100,84,61,41,0.00,40.00,3,1,11,0.12
2013-11-10,53,42,33,31,30,26,78,63,41,0.00,40.00,1,1,8,0.07
2013-11-11,56,48,40,26,25,25,57,42,31,0.00,40.00,2,1,7,0.00
2013-11-12,59,54,45,17,16,15,29,22,18,0.00,40.00,2,1,7,0.00
2013-11-13,43,35,32,35,31,21,100,88,43,0.00,40.00,3,1,10,0.02
2013-11-14,40,33,29,34,32,27,100,96,79,0.00,40.00,2,1,7,0.13
2013-11-15,29,27,24,29,26,19,100,96,76,0.00,40.00,5,2,14,0.01
2013-11-16,27,25,20,26,21,-100,98,90,70,0.00,40.00,6,4,21,0.00
2013-11-17,31,24,17,24,18,13,88,79,71,0.00,40.00,5,4,18,0.00
2013-11-18,43,38,31,25,23,19,76,57,40,0.00,40.00,5,3,12,0.13
2013-11-19,39,33,32,34,32,19,100,95,48,0.00,40.00,5,3,19,0.09
2013-11-20,34,32,24,34,32,23,100,100,97,0.00,40.00,22,4,16,0.05
2013-11-21,29,16,8,23,14,4,97,87,68,0.00,40.00,2,1,6,0.14
2013-11-22,25,21,16,21,18,13,93,88,85,0.00,40.00,2,1,6,0.18
2013-11-23,36,27,16,25,17,-100,89,78,64,0.00,40.00,2,1,6,0.26
2013-11-24,34,28,21,20,18,16,89,68,53,0.00,40.00,1,0,4,0.09
2013-11-25,41,26,18,21,19,15,90,76,40,0.00,40.00,2,0,7,0.07
2013-11-26,42,35,30,24,22,21,74,61,49,0.00,40.00,1,0,4,0.00
2013-11-27,46,38,31,18,16,15,58,42,29,0.00,40.00,2,1,6,0.04
2013-11-28,34,34,34,17,17,17,50,50,50,0.00,40.00,0,0,3,0.00
2013-11-29,39,30,25,24,23,22,91,78,54,0.00,40.00,1,0,5,0.00
2013-11-30,37,32,30,30,24,-100,100,81,60,0.00,40.00,2,1,12,0.00
2013-12-1,34,32,30,34,32,30,100,100,100,0.00,40.00,7,4,24,0.00
2013-12-2,37,34,25,34,30,24,100,86,74,0.00,40.00,8,6,32,0.00
2013-12-3,25,11,-4,24,6,-10,97,82,74,0.00,40.00,6,2,19,0.00
2013-12-4,13,-6,-13,1,-14,-21,75,69,57,0.00,40.00,2,1,9,0.01
2013-12-5,7,1,-6,-6,-9,-13,72,61,54,0.00,40.00,1,0,7,0.00
2013-12-6,8,4,0,-3,-5,-7,75,67,57,0.00,40.00,2,1,9,0.00
2013-12-7,15,7,0,9,0,-100,84,75,68,0.00,40.00,2,1,7,0.00
2013-12-8,6,-2,-13,-4,-10,-20,76,68,52,0.00,40.00,2,1,9,0.00
2013-12-9,5,-6,-17,-1,-14,-26,76,68,60,0.00,40.00,2,1,8,0.00
2013-12-10,16,8,2,7,1,-4,81,75,67,0.00,40.00,3,0,9,0.00
2013-12-11,15,8,3,11,4,-1,87,82,78,0.00,40.00,2,0,5,0.00
2013-12-13,23,18,15,19,15,12,91,86,81,0.00,40.00,2,1,5,0.02
2013-12-14,26,20,15,22,17,-100,98,92,84,0.00,40.00,3,1,11,0.00
2013-12-15,30,23,19,23,21,16,98,93,75,0.00,40.00,2,1,7,0.04
2013-12-16,31,26,22,23,21,20,92,83,71,0.00,40.00,1,1,4,0.13
2013-12-17,33,31,29,22,22,21,75,68,62,0.00,40.00,0,0,5,0.00
2013-12-18,44,33,27,22,20,18,77,61,39,0.00,40.00,1,1,9,0.17
2013-12-19,29,24,10,26,16,6,89,75,51,0.00,40.00,2,1,7,0.07
2013-12-20,16,14,11,11,9,7,85,81,75,0.00,40.00,2,1,9,0.00
2013-12-21,23,17,15,18,13,-100,92,85,80,0.00,40.00,3,1,10,0.00
2013-12-22,23,19,16,19,16,13,94,89,82,0.00,40.00,2,1,9,0.00
2013-12-23,32,27,21,32,26,19,100,96,92,0.00,40.00,7,1,21,0.00
2013-12-24,32,21,14,32,18,11,100,87,53,0.00,40.00,7,2,23,0.07
2013-12-25,20,15,11,15,11,7,89,85,79,0.00,40.00,2,1,6,0.07
2013-12-26,25,22,19,15,15,14,84,73,65,0.00,40.00,1,0,5,0.15
2013-12-27,35,35,35,16,16,16,46,46,46,0.00,40.00,0,0,4,0.00
2013-12-28,33,22,11,18,11,-100,86,70,49,0.00,40.00,2,1,8,0.01
2013-12-29,21,18,11,16,14,7,88,84,76,0.00,40.00,3,2,11,0.00
2013-12-30,28,21,18,20,16,15,90,80,64,0.00,40.00,2,1,7,0.00
2013-12-31,28,24,23,25,23,21,97,92,88,0.00,40.00,2,1,10,0.00
2014-1-1,25,21,13,23,18,10,97,90,80,0.00,40.00,2,1,8,0.00
2014-1-2,32,25,15,26,22,12,97,90,78,0.00,40.00,2,1,5,0.00